createdAt,value
2019-01-19T00:00:14.706Z,17.77
2019-01-19T00:03:11.026Z,17.30
2019-01-19T00:05:50.748Z,17.33
2019-01-19T00:08:27.608Z,16.73
2019-01-19T00:11:35.165Z,16.77
2019-01-19T00:14:09.268Z,16.67
2019-01-19T00:16:51.833Z,17.47
2019-01-19T00:19:48.544Z,17.03
2019-01-19T00:22:43.596Z,15.37
2019-01-19T00:25:35.146Z,18.17
2019-01-19T00:28:28.072Z,16.80
2019-01-19T00:31:04.747Z,15.63
2019-01-19T00:34:01.145Z,17.57
2019-01-19T00:36:40.734Z,16.23
2019-01-19T00:39:23.215Z,15.90
2019-01-19T00:42:20.872Z,16.10
2019-01-19T00:45:12.537Z,16.97
2019-01-19T00:48:01.390Z,16.13
2019-01-19T00:50:53.228Z,16.33
2019-01-19T00:53:41.797Z,13.47
2019-01-19T00:56:37.993Z,15.37
2019-01-19T00:59:15.141Z,15.50
2019-01-19T01:02:03.301Z,15.50
2019-01-19T01:04:43.124Z,14.47
2019-01-19T01:07:28.609Z,15.40
2019-01-19T01:10:17.786Z,14.80
2019-01-19T01:13:26.410Z,15.00
2019-01-19T01:16:05.809Z,14.80
2019-01-19T01:18:50.970Z,14.93
2019-01-19T01:21:42.519Z,15.53
2019-01-19T01:24:25.612Z,14.60
2019-01-19T01:26:59.726Z,14.17
2019-01-19T01:30:02.341Z,14.30
2019-01-19T01:32:57.441Z,13.10
2019-01-19T01:35:47.969Z,14.73
2019-01-19T01:38:37.247Z,14.47
2019-01-19T01:41:30.996Z,13.13
2019-01-19T01:44:39.920Z,14.53
2019-01-19T01:47:28.981Z,14.57
2019-01-19T01:50:20.866Z,14.37
2019-01-19T01:53:03.728Z,14.50
2019-01-19T01:55:36.971Z,13.10
2019-01-19T01:58:11.229Z,14.77
2019-01-19T02:01:15.876Z,14.70
2019-01-19T02:04:01.663Z,16.23
2019-01-19T02:06:58.364Z,14.53
2019-01-19T02:10:07.834Z,15.20
2019-01-19T02:15:59.436Z,14.03
2019-01-19T02:18:36.063Z,14.70
2019-01-19T02:21:22.023Z,15.33
2019-01-19T02:23:58.570Z,15.10
2019-01-19T02:26:46.528Z,14.27
2019-01-19T02:29:50.423Z,14.00
2019-01-19T02:32:45.044Z,14.83
2019-01-19T02:35:21.546Z,14.37
2019-01-19T02:38:24.805Z,14.37
2019-01-19T02:41:38.825Z,15.03
2019-01-19T02:44:24.778Z,15.57
2019-01-19T02:47:07.699Z,15.13
2019-01-19T02:50:06.387Z,15.23
2019-01-19T02:53:04.515Z,16.20
2019-01-19T02:55:45.602Z,15.07
2019-01-19T02:58:42.020Z,14.87
2019-01-19T03:01:30.344Z,15.73
2019-01-19T03:04:31.510Z,15.30
2019-01-19T03:07:25.794Z,14.57
2019-01-19T03:10:25.316Z,15.67
2019-01-19T03:13:17.513Z,15.83
2019-01-19T03:16:24.233Z,15.20
2019-01-19T03:19:32.386Z,16.20
2019-01-19T03:22:37.971Z,14.13
2019-01-19T03:25:47.531Z,15.57
2019-01-19T03:28:33.297Z,15.90
2019-01-19T03:31:50.849Z,16.33
2019-01-19T03:34:30.214Z,15.63
2019-01-19T03:37:25.232Z,15.80
2019-01-19T03:40:26.194Z,15.30
2019-01-19T03:43:22.858Z,15.17
2019-01-19T03:46:11.951Z,16.40
2019-01-19T03:49:17.854Z,15.10
2019-01-19T03:52:00.656Z,16.30
2019-01-19T03:54:55.839Z,16.73
2019-01-19T03:57:44.926Z,16.23
2019-01-19T04:00:18.990Z,17.30
2019-01-19T04:03:12.504Z,17.23
2019-01-19T04:06:14.961Z,17.07
2019-01-19T04:09:31.611Z,15.63
2019-01-19T04:12:14.509Z,15.53
2019-01-19T04:15:15.657Z,16.90
2019-01-19T04:18:07.430Z,17.27
2019-01-19T04:21:02.331Z,17.07
2019-01-19T04:23:32.224Z,16.17
2019-01-19T04:26:04.100Z,16.73
2019-01-19T04:28:33.617Z,16.93
2019-01-19T04:31:03.121Z,16.57
2019-01-19T04:33:32.574Z,17.07
2019-01-19T04:36:02.031Z,17.07
2019-01-19T04:38:33.660Z,17.00
2019-01-19T04:41:03.220Z,17.50
2019-01-19T04:43:32.676Z,16.97
2019-01-19T04:46:02.218Z,17.27
2019-01-19T04:48:32.071Z,16.87
2019-01-19T04:51:01.504Z,16.83
2019-01-19T04:53:30.964Z,16.03
2019-01-19T04:56:00.427Z,16.97
2019-01-19T04:58:29.876Z,16.50
2019-01-19T05:00:59.439Z,17.43
2019-01-19T05:03:28.882Z,17.53
2019-01-19T05:05:58.310Z,18.13
2019-01-19T05:08:27.880Z,16.63
2019-01-19T05:10:57.373Z,16.30
2019-01-19T05:13:26.847Z,18.07
2019-01-19T05:15:56.327Z,18.37
2019-01-19T05:18:25.971Z,18.00
2019-01-19T05:20:55.607Z,17.93
2019-01-19T05:23:25.627Z,17.53
2019-01-19T05:25:55.198Z,17.17
2019-01-19T05:28:24.681Z,17.50
2019-01-19T05:30:54.163Z,17.33
2019-01-19T05:33:23.709Z,17.07
2019-01-19T05:35:53.230Z,17.70
2019-01-19T05:38:22.724Z,15.70
2019-01-19T05:40:52.199Z,17.53
2019-01-19T05:43:21.652Z,16.80
2019-01-19T05:45:51.110Z,17.63
2019-01-19T05:48:20.532Z,17.23
2019-01-19T05:50:50.048Z,17.47
2019-01-19T05:53:19.529Z,17.30
2019-01-19T05:55:49.026Z,17.67
2019-01-19T05:58:18.498Z,16.87
2019-01-19T06:00:47.966Z,17.83
2019-01-19T06:03:17.394Z,17.50
2019-01-19T06:05:47.038Z,17.47
2019-01-19T06:08:16.638Z,17.20
2019-01-19T06:10:46.190Z,16.20
2019-01-19T06:13:15.669Z,16.87
2019-01-19T06:15:45.199Z,18.20
2019-01-19T06:18:14.649Z,16.87
2019-01-19T06:20:44.128Z,16.63
2019-01-19T06:23:13.622Z,17.33
2019-01-19T06:25:43.137Z,17.43
2019-01-19T06:28:12.708Z,17.13
2019-01-19T06:30:42.246Z,17.43
2019-01-19T06:33:11.710Z,16.30
2019-01-19T06:35:41.428Z,17.60
2019-01-19T06:38:10.878Z,17.07
2019-01-19T06:40:40.304Z,17.57
2019-01-19T06:43:09.743Z,17.10
2019-01-19T06:45:39.280Z,16.30
2019-01-19T06:48:08.809Z,17.10
2019-01-19T06:50:38.326Z,16.30
2019-01-19T06:53:07.770Z,17.43
2019-01-19T06:55:37.366Z,16.37
2019-01-19T06:58:07.099Z,17.87
2019-01-19T07:00:36.632Z,16.23
2019-01-19T07:03:06.359Z,17.87
2019-01-19T07:05:35.836Z,17.90
2019-01-19T07:08:05.436Z,17.60
2019-01-19T07:10:35.049Z,17.77
2019-01-19T07:13:04.587Z,17.03
2019-01-19T07:15:34.397Z,17.20
2019-01-19T07:18:03.873Z,17.33
2019-01-19T07:20:33.392Z,17.03
2019-01-19T07:23:03.697Z,16.60
2019-01-19T07:25:33.249Z,17.27
2019-01-19T07:28:02.814Z,16.93
2019-01-19T07:30:32.585Z,16.97
2019-01-19T07:33:02.134Z,16.47
2019-01-19T07:35:31.716Z,15.53
2019-01-19T07:38:01.236Z,15.60
2019-01-19T07:40:30.908Z,16.77
2019-01-19T07:43:01.870Z,16.23
2019-01-19T07:45:31.493Z,15.93
2019-01-19T07:48:01.182Z,17.13
2019-01-19T07:50:30.834Z,17.53
2019-01-19T07:53:00.273Z,16.37
2019-01-19T07:55:29.801Z,16.63
2019-01-19T07:57:59.334Z,15.97
2019-01-19T08:00:32.468Z,15.93
2019-01-19T08:03:02.133Z,16.03
2019-01-19T08:05:31.927Z,15.37
2019-01-19T08:08:01.515Z,16.47
2019-01-19T08:10:33.830Z,15.63
2019-01-19T08:13:03.450Z,14.77
2019-01-19T08:15:33.051Z,15.37
2019-01-19T08:18:02.512Z,16.03
2019-01-19T08:20:32.029Z,15.67
2019-01-19T08:23:01.599Z,15.70
2019-01-19T08:25:31.233Z,14.70
2019-01-19T08:28:01.393Z,13.83
2019-01-19T08:30:31.529Z,15.27
2019-01-19T08:33:01.071Z,14.73
2019-01-19T08:35:30.721Z,14.73
2019-01-19T08:38:00.337Z,14.63
2019-01-19T08:40:34.011Z,13.40
2019-01-19T08:43:05.255Z,13.67
2019-01-19T08:45:34.724Z,14.30
2019-01-19T08:48:04.579Z,13.90
2019-01-19T08:50:34.025Z,13.00
2019-01-19T08:53:05.871Z,13.60
2019-01-19T08:55:35.441Z,13.40
2019-01-19T08:58:05.211Z,13.77
2019-01-19T09:00:34.758Z,12.87
2019-01-19T09:03:04.366Z,13.23
2019-01-19T09:05:33.989Z,12.70
2019-01-19T09:08:03.490Z,12.27
2019-01-19T09:10:32.987Z,12.90
2019-01-19T09:13:02.526Z,12.40
2019-01-19T09:15:32.064Z,11.70
2019-01-19T09:18:01.523Z,12.73
2019-01-19T09:20:31.116Z,13.03
2019-01-19T09:23:08.318Z,12.40
2019-01-19T09:25:37.733Z,12.37
2019-01-19T09:28:07.244Z,11.70
2019-01-19T09:30:36.721Z,12.07
2019-01-19T09:33:06.424Z,11.43
2019-01-19T09:35:35.939Z,12.80
2019-01-19T09:38:05.696Z,12.03
2019-01-19T09:40:35.246Z,12.07
2019-01-19T09:43:04.923Z,11.80
2019-01-19T09:45:34.453Z,12.17
2019-01-19T09:48:04.080Z,12.40
2019-01-19T09:50:34.341Z,11.73
2019-01-19T09:53:03.941Z,11.77
2019-01-19T09:55:33.512Z,12.47
2019-01-19T09:58:03.167Z,11.63
2019-01-19T10:00:37.584Z,11.73
2019-01-19T10:03:04.105Z,11.60
2019-01-19T10:05:33.717Z,12.37
2019-01-19T10:08:03.325Z,11.90
2019-01-19T10:10:32.888Z,12.43
2019-01-19T10:13:02.443Z,11.40
2019-01-19T10:15:31.961Z,11.40
2019-01-19T10:18:01.594Z,11.43
2019-01-19T10:20:31.955Z,12.17
2019-01-19T10:23:01.488Z,11.30
2019-01-19T10:25:31.020Z,11.87
2019-01-19T10:28:00.560Z,11.37
2019-01-19T10:30:31.502Z,11.00
2019-01-19T10:33:01.002Z,11.03
2019-01-19T10:35:30.593Z,11.20
2019-01-19T10:38:00.139Z,11.83
2019-01-19T10:40:29.626Z,11.10
2019-01-19T10:42:59.114Z,11.03
2019-01-19T10:45:31.627Z,11.20
2019-01-19T10:48:01.238Z,11.13
2019-01-19T10:50:30.882Z,11.10
2019-01-19T10:53:00.430Z,11.63
2019-01-19T10:55:29.914Z,11.23
2019-01-19T10:57:59.364Z,12.00
2019-01-19T11:00:34.816Z,11.40
2019-01-19T11:03:05.408Z,11.30
2019-01-19T11:05:35.082Z,10.87
2019-01-19T11:08:06.761Z,9.90
2019-01-19T11:10:37.052Z,10.67
2019-01-19T11:13:06.834Z,10.17
2019-01-19T11:15:36.491Z,11.33
2019-01-19T11:18:06.183Z,11.57
2019-01-19T11:20:35.829Z,10.83
2019-01-19T11:23:05.417Z,10.50
2019-01-19T11:25:35.083Z,10.90
2019-01-19T11:28:04.846Z,9.93
2019-01-19T11:30:35.023Z,10.50
2019-01-19T11:33:04.744Z,9.77
2019-01-19T11:35:34.278Z,10.00
2019-01-19T11:38:04.102Z,10.10
2019-01-19T11:40:36.789Z,9.60
2019-01-19T11:43:08.240Z,9.57
2019-01-19T11:45:37.835Z,9.00
2019-01-19T11:48:07.644Z,9.50
2019-01-19T11:50:37.298Z,9.13
2019-01-19T11:53:06.910Z,9.77
2019-01-19T11:55:36.463Z,9.77
2019-01-19T11:58:06.222Z,8.83
2019-01-19T12:00:38.689Z,9.03
2019-01-19T12:03:08.643Z,9.10
2019-01-19T12:05:39.908Z,9.20
2019-01-19T12:08:10.150Z,9.03
2019-01-19T12:10:39.746Z,8.93
2019-01-19T12:13:09.263Z,8.80
2019-01-19T12:15:38.957Z,8.50
2019-01-19T12:18:08.766Z,8.00
2019-01-19T12:20:41.592Z,8.53
2019-01-19T12:23:11.313Z,9.27
2019-01-19T12:25:41.130Z,7.83
2019-01-19T12:28:10.604Z,8.70
2019-01-19T12:30:40.197Z,8.13
2019-01-19T12:33:09.698Z,7.47
2019-01-19T12:35:39.476Z,8.23
2019-01-19T12:38:09.067Z,7.70
2019-01-19T12:40:38.597Z,7.30
2019-01-19T12:43:15.451Z,7.53
2019-01-19T12:45:49.260Z,8.20
2019-01-19T12:48:18.854Z,8.17
2019-01-19T12:50:48.302Z,7.50
2019-01-19T12:53:17.901Z,8.00
2019-01-19T12:55:47.372Z,7.87
2019-01-19T12:58:16.827Z,7.30
2019-01-19T13:00:46.336Z,7.33
2019-01-19T13:03:15.888Z,7.20
2019-01-19T13:05:58.438Z,6.90
2019-01-19T13:08:34.333Z,7.23
2019-01-19T13:11:17.358Z,7.53
2019-01-19T13:13:48.538Z,7.03
2019-01-19T13:16:40.118Z,6.77
2019-01-19T13:19:19.970Z,7.00
2019-01-19T13:22:25.562Z,6.70
2019-01-19T13:25:17.500Z,6.83
2019-01-19T13:28:09.499Z,6.87
2019-01-19T13:31:13.465Z,7.60
2019-01-19T13:34:35.616Z,7.97
2019-01-19T13:37:37.028Z,7.33
2019-01-19T13:40:13.624Z,7.50
2019-01-19T13:43:06.811Z,6.93
2019-01-19T13:46:01.534Z,7.50
2019-01-19T13:49:14.352Z,6.73
2019-01-19T13:51:48.442Z,7.10
2019-01-19T13:54:53.572Z,6.57
2019-01-19T13:57:36.178Z,7.10
2019-01-19T14:00:24.968Z,6.93
2019-01-19T14:03:33.233Z,6.63
2019-01-19T14:06:18.871Z,7.23
2019-01-19T14:09:16.489Z,6.17
2019-01-19T14:12:05.494Z,6.63
2019-01-19T14:18:18.442Z,6.77
2019-01-19T14:21:34.664Z,6.40
2019-01-19T14:24:21.097Z,6.37
2019-01-19T14:27:20.681Z,6.30
2019-01-19T14:30:23.364Z,6.70
2019-01-19T14:33:24.231Z,5.90
2019-01-19T14:36:17.154Z,6.10
2019-01-19T14:39:03.340Z,6.07
2019-01-19T14:42:04.751Z,5.77
2019-01-19T14:44:50.391Z,6.10
2019-01-19T14:50:40.749Z,6.63
2019-01-19T14:53:31.635Z,6.53
2019-01-19T14:56:33.040Z,5.97
2019-01-19T14:59:29.035Z,6.00
2019-01-19T15:02:40.810Z,5.53
2019-01-19T15:05:31.397Z,5.63
2019-01-19T15:08:41.599Z,6.00
2019-01-19T15:11:43.958Z,6.30
2019-01-19T15:14:34.667Z,5.73
2019-01-19T15:17:47.903Z,5.90
2019-01-19T15:20:44.104Z,5.87
2019-01-19T15:27:03.023Z,6.10
2019-01-19T15:29:56.562Z,5.30
2019-01-19T15:32:42.501Z,5.20
2019-01-19T15:36:06.724Z,5.63
2019-01-19T15:39:30.839Z,4.93
2019-01-19T15:42:33.642Z,4.93
2019-01-19T15:45:41.160Z,5.17
2019-01-19T15:48:48.368Z,5.03
2019-01-19T15:52:07.801Z,5.20
2019-01-19T15:54:50.478Z,4.77
2019-01-19T15:57:57.685Z,4.90
2019-01-19T16:01:00.361Z,4.87
2019-01-19T16:03:36.895Z,4.73
2019-01-19T16:06:30.369Z,5.00
2019-01-19T16:09:40.229Z,5.03
2019-01-19T16:12:53.499Z,5.43
2019-01-19T16:16:09.874Z,5.50
2019-01-19T16:19:10.834Z,5.40
2019-01-19T16:22:10.259Z,5.90
2019-01-19T16:25:02.365Z,6.13
2019-01-19T16:27:50.932Z,6.20
2019-01-19T16:30:30.782Z,6.57
2019-01-19T16:33:07.549Z,6.57
2019-01-19T16:35:44.066Z,5.10
2019-01-19T16:38:37.434Z,5.63
2019-01-19T16:41:29.441Z,6.20
2019-01-19T16:44:18.784Z,6.80
2019-01-19T16:47:16.281Z,5.77
2019-01-19T16:50:02.057Z,5.70
2019-01-19T16:52:53.173Z,6.03
2019-01-19T16:55:47.877Z,6.27
2019-01-19T16:58:39.693Z,5.03
2019-01-19T17:01:24.779Z,5.60
2019-01-19T17:04:19.793Z,5.70
2019-01-19T17:10:33.944Z,5.37
2019-01-19T17:13:17.083Z,4.80
2019-01-19T17:16:22.735Z,5.40
2019-01-19T17:19:32.879Z,6.17
2019-01-19T17:22:56.921Z,5.90
2019-01-19T17:25:59.378Z,5.10
2019-01-19T17:29:15.512Z,5.97
2019-01-19T17:32:22.540Z,5.87
2019-01-19T17:35:35.485Z,6.43
2019-01-19T17:38:28.852Z,5.93
2019-01-19T17:41:38.803Z,5.93
2019-01-19T17:45:02.855Z,5.77
2019-01-19T17:47:45.841Z,6.17
2019-01-19T17:50:51.506Z,5.77
2019-01-19T17:53:57.150Z,5.50
2019-01-19T17:56:47.943Z,5.40
2019-01-19T17:59:52.266Z,5.30
2019-01-19T18:02:31.795Z,5.60
2019-01-19T18:05:34.752Z,6.17
2019-01-19T18:08:44.938Z,5.33
2019-01-19T18:11:47.323Z,5.43
2019-01-19T18:14:39.110Z,6.17
2019-01-19T18:17:44.268Z,6.17
2019-01-19T18:24:25.883Z,5.90
2019-01-19T18:27:14.967Z,5.57
2019-01-19T18:30:11.559Z,5.87
2019-01-19T18:33:18.576Z,5.50
2019-01-19T18:36:42.786Z,5.17
2019-01-19T18:39:33.445Z,5.83
2019-01-19T18:42:40.703Z,5.70
2019-01-19T18:46:04.887Z,5.13
2019-01-19T18:49:29.257Z,5.50
2019-01-19T18:52:31.750Z,5.60
2019-01-19T18:55:55.353Z,6.03
2019-01-19T18:59:05.592Z,5.30
2019-01-19T19:02:21.981Z,5.07
2019-01-19T19:05:16.852Z,5.40
2019-01-19T19:08:13.296Z,5.07
2019-01-19T19:11:38.465Z,6.03
2019-01-19T19:14:40.426Z,5.80
2019-01-19T19:17:56.766Z,6.07
2019-01-19T19:21:04.556Z,5.07
2019-01-19T19:24:20.484Z,5.57
2019-01-19T19:27:42.648Z,6.10
2019-01-19T19:30:42.613Z,5.67
2019-01-19T19:33:37.382Z,6.17
2019-01-19T19:36:50.617Z,5.77
2019-01-19T19:39:50.220Z,5.67
2019-01-19T19:42:32.911Z,5.97
2019-01-19T19:45:18.779Z,5.80
2019-01-19T19:48:29.103Z,5.50
2019-01-19T19:51:05.858Z,6.00
2019-01-19T19:53:35.393Z,6.03
2019-01-19T19:56:03.269Z,6.47
2019-01-19T19:58:32.754Z,6.17
2019-01-19T20:01:02.263Z,6.10
2019-01-19T20:03:31.712Z,6.07
2019-01-19T20:06:01.407Z,5.83
2019-01-19T20:08:30.991Z,5.90
2019-01-19T20:11:00.541Z,5.73
2019-01-19T20:13:30.027Z,6.50
2019-01-19T20:15:59.427Z,6.03
2019-01-19T20:18:28.917Z,6.33
2019-01-19T20:20:58.423Z,6.20
2019-01-19T20:23:27.945Z,6.13
2019-01-19T20:25:57.386Z,5.57
2019-01-19T20:28:26.928Z,6.03
2019-01-19T20:30:56.518Z,5.77
2019-01-19T20:33:26.062Z,5.60
2019-01-19T20:35:55.535Z,6.40
2019-01-19T20:38:24.997Z,5.33
2019-01-19T20:40:54.661Z,5.70
2019-01-19T20:43:24.167Z,5.53
2019-01-19T20:45:53.697Z,5.83
2019-01-19T20:48:23.452Z,6.53
2019-01-19T20:50:53.074Z,6.30
2019-01-19T20:53:22.535Z,6.33
2019-01-19T20:55:52.016Z,6.27
2019-01-19T20:58:21.576Z,6.70
2019-01-19T21:00:51.282Z,6.27
2019-01-19T21:03:20.771Z,6.83
2019-01-19T21:05:50.304Z,6.97
2019-01-19T21:08:19.820Z,6.47
2019-01-19T21:10:49.306Z,6.53
2019-01-19T21:13:18.886Z,6.13
2019-01-19T21:15:48.375Z,6.87
2019-01-19T21:18:17.834Z,6.80
2019-01-19T21:20:47.512Z,7.27
2019-01-19T21:23:16.964Z,6.87
2019-01-19T21:25:46.440Z,6.70
2019-01-19T21:28:17.422Z,7.57
2019-01-19T21:30:46.884Z,7.13
2019-01-19T21:33:16.426Z,6.50
2019-01-19T21:35:45.966Z,6.80
2019-01-19T21:38:15.503Z,6.90
2019-01-19T21:40:44.997Z,7.30
2019-01-19T21:43:14.564Z,7.30
2019-01-19T21:45:44.071Z,6.50
2019-01-19T21:48:13.553Z,6.77
2019-01-19T21:50:43.120Z,7.27
2019-01-19T21:53:12.623Z,6.87
2019-01-19T21:55:42.303Z,6.30
2019-01-19T21:58:11.841Z,6.77
2019-01-19T22:00:41.509Z,7.10
2019-01-19T22:03:11.118Z,7.33
2019-01-19T22:05:40.657Z,7.30
2019-01-19T22:08:10.195Z,7.03
2019-01-19T22:10:46.298Z,6.87
2019-01-19T22:13:11.607Z,7.27
2019-01-19T22:15:41.226Z,7.07
2019-01-19T22:18:10.919Z,7.63
2019-01-19T22:20:40.482Z,7.77
2019-01-19T22:23:10.254Z,7.33
2019-01-19T22:25:39.755Z,7.40
2019-01-19T22:28:09.390Z,6.93
2019-01-19T22:30:39.084Z,7.33
2019-01-19T22:33:09.476Z,7.90
2019-01-19T22:35:39.102Z,7.33
2019-01-19T22:38:08.591Z,7.37
2019-01-19T22:40:38.082Z,7.30
2019-01-19T22:43:07.839Z,7.43
2019-01-19T22:45:37.369Z,7.70
2019-01-19T22:48:06.894Z,7.20
2019-01-19T22:50:36.369Z,7.60
2019-01-19T22:53:06.015Z,8.07
2019-01-19T22:55:35.457Z,7.17
2019-01-19T22:58:04.961Z,7.77
2019-01-19T23:01:04.476Z,6.90
2019-01-19T23:03:34.829Z,7.67
2019-01-19T23:06:04.727Z,7.30
2019-01-19T23:08:34.241Z,7.37
2019-01-19T23:11:04.021Z,6.50
2019-01-19T23:13:33.569Z,6.63
2019-01-19T23:16:03.453Z,7.50
2019-01-19T23:18:32.995Z,6.93
2019-01-19T23:21:02.515Z,6.47
2019-01-19T23:23:31.981Z,7.53
2019-01-19T23:26:02.595Z,7.27
2019-01-19T23:28:32.252Z,7.53
2019-01-19T23:31:01.752Z,7.57
2019-01-19T23:33:31.282Z,7.50
2019-01-19T23:36:00.746Z,7.33
2019-01-19T23:38:30.242Z,7.00
2019-01-19T23:40:59.699Z,7.47
2019-01-19T23:43:29.122Z,6.93
2019-01-19T23:45:58.593Z,6.60
2019-01-19T23:48:28.030Z,6.90
2019-01-19T23:50:57.488Z,6.50
2019-01-19T23:53:26.938Z,6.43
2019-01-19T23:55:56.379Z,6.70
2019-01-19T23:58:25.860Z,6.73
